Time;durP1;ratioP1;P1;durP2;ratioP2;P2;SDS_P1;SDS_P2;PMS_P1;PMS_P2;Temp;Humidity;BMP_temperature;BMP_pressure;BME280_temperature;BME280_humidity;BME280_pressure;Samples;Min_cycle;Max_cycle;Signal;HPM_P1;HPM_P2
2021/12/27 00:00:15;;;;;;;14.30;8.87;;;3.50;99.90;;;;;;5056487;28;20187;-44
2021/12/27 00:02:42;;;;;;;9.53;6.07;;;3.60;99.90;;;;;;5056185;28;20334;-45
2021/12/27 00:05:08;;;;;;;14.47;8.90;;;3.60;99.90;;;;;;5056229;28;20709;-45
2021/12/27 00:07:34;;;;;;;14.63;9.30;;;3.60;99.90;;;;;;5056143;28;20184;-44
2021/12/27 00:10:02;;;;;;;14.17;8.30;;;3.60;99.90;;;;;;5056284;28;20520;-45
2021/12/27 00:12:28;;;;;;;16.27;9.40;;;3.60;99.90;;;;;;5056493;28;20232;-44
2021/12/27 00:14:54;;;;;;;13.90;9.97;;;3.60;99.90;;;;;;5056173;28;20246;-44
2021/12/27 00:17:19;;;;;;;14.63;9.73;;;3.60;99.90;;;;;;5055878;28;20575;-44
2021/12/27 00:19:46;;;;;;;14.87;10.03;;;3.60;99.90;;;;;;5055891;28;20176;-45
2021/12/27 00:22:12;;;;;;;15.50;9.37;;;3.60;99.90;;;;;;5054503;28;20196;-44
2021/12/27 00:24:38;;;;;;;14.60;9.17;;;3.60;99.90;;;;;;5056072;28;20312;-45
2021/12/27 00:27:03;;;;;;;13.17;8.97;;;3.70;99.90;;;;;;5055789;28;20719;-44
2021/12/27 00:29:30;;;;;;;13.13;9.30;;;3.60;99.90;;;;;;5054334;28;20204;-45
2021/12/27 00:31:55;;;;;;;14.80;9.53;;;3.60;99.90;;;;;;5053598;28;20264;-44
2021/12/27 00:34:21;;;;;;;11.87;8.77;;;3.70;99.90;;;;;;5054604;28;20188;-45
2021/12/27 00:36:47;;;;;;;12.70;8.67;;;3.70;99.90;;;;;;5055548;28;20710;-43
2021/12/27 00:39:12;;;;;;;14.43;9.40;;;3.70;99.90;;;;;;5055500;28;20187;-46
2021/12/27 00:41:38;;;;;;;13.80;8.63;;;3.70;99.90;;;;;;5055460;28;20227;-45
2021/12/27 00:44:04;;;;;;;14.87;9.17;;;3.70;99.90;;;;;;5055399;28;20187;-46
2021/12/27 00:46:29;;;;;;;14.73;9.63;;;3.70;99.90;;;;;;5055656;28;20188;-45
2021/12/27 00:48:55;;;;;;;12.43;8.87;;;3.60;99.90;;;;;;5055617;28;20187;-45
2021/12/27 00:51:21;;;;;;;15.13;9.40;;;3.70;99.90;;;;;;5055249;28;20177;-45
2021/12/27 00:53:46;;;;;;;16.93;9.50;;;3.70;99.90;;;;;;5055237;28;20184;-45
2021/12/27 00:56:12;;;;;;;13.90;9.23;;;3.70;99.90;;;;;;5055530;28;20563;-43
2021/12/27 00:58:38;;;;;;;15.10;8.97;;;3.70;99.90;;;;;;5055155;28;20183;-45
2021/12/27 01:01:05;;;;;;;13.57;9.27;;;3.70;99.90;;;;;;5055363;28;20226;-44
2021/12/27 01:03:30;;;;;;;12.70;8.63;;;3.70;99.90;;;;;;5054984;28;20226;-44
2021/12/27 01:05:56;;;;;;;15.10;9.77;;;3.70;99.90;;;;;;5054939;28;20183;-45
2021/12/27 01:08:22;;;;;;;14.20;9.30;;;3.70;99.90;;;;;;5055270;28;20532;-45
2021/12/27 01:13:24;;;;;;;14.43;9.40;;;3.70;99.90;;;;;;5055078;28;20441;-45
2021/12/27 01:16:10;;;;;;;14.07;9.20;;;3.70;99.90;;;;;;5055039;28;20215;-44
2021/12/27 01:18:38;;;;;;;12.77;8.47;;;3.70;99.90;;;;;;5055294;28;20527;-44
2021/12/27 01:21:03;;;;;;;13.87;8.87;;;3.70;99.90;;;;;;5054677;28;20176;-45
2021/12/27 01:23:29;;;;;;;10.57;6.83;;;3.70;99.90;;;;;;5054653;28;20204;-45
2021/12/27 01:25:55;;;;;;;12.63;8.20;;;3.70;99.90;;;;;;5054645;28;20191;-43
2021/12/27 01:28:20;;;;;;;13.37;8.93;;;3.70;99.90;;;;;;5054417;28;20192;-45
2021/12/27 01:30:48;;;;;;;13.40;8.67;;;3.70;99.90;;;;;;5054830;28;20180;-45
2021/12/27 01:33:19;;;;;;;12.60;8.37;;;3.70;99.90;;;;;;5053122;28;20211;-46
2021/12/27 01:35:46;;;;;;;13.73;8.60;;;3.70;99.90;;;;;;5054511;28;20214;-45
2021/12/27 01:38:13;;;;;;;15.17;8.57;;;3.70;99.90;;;;;;5054707;28;20188;-44
2021/12/27 01:40:40;;;;;;;12.97;8.63;;;3.70;99.90;;;;;;5054292;28;20192;-45
2021/12/27 01:43:13;;;;;;;14.53;9.37;;;3.70;99.90;;;;;;5054184;28;20203;-46
2021/12/27 01:46:01;;;;;;;12.17;8.37;;;3.70;99.90;;;;;;5054694;28;20168;-45
2021/12/27 01:48:33;;;;;;;13.17;8.17;;;3.70;99.90;;;;;;5038133;28;20192;-46
2021/12/27 01:51:00;;;;;;;14.57;8.70;;;3.70;99.90;;;;;;5054453;28;20168;-45
2021/12/27 01:53:28;;;;;;;12.80;7.90;;;3.70;99.90;;;;;;5054231;28;20204;-45
2021/12/27 01:55:55;;;;;;;13.83;8.57;;;3.70;99.90;;;;;;5053731;28;20208;-45
2021/12/27 01:58:22;;;;;;;13.03;8.63;;;3.70;99.90;;;;;;5053961;28;20195;-45
2021/12/27 02:00:52;;;;;;;14.13;8.90;;;3.70;99.90;;;;;;5054476;28;20176;-44
2021/12/27 02:03:20;;;;;;;12.20;8.50;;;3.70;99.90;;;;;;5053910;28;20238;-45
2021/12/27 02:05:46;;;;;;;13.70;8.57;;;3.70;99.90;;;;;;5053861;28;20188;-45
2021/12/27 02:08:12;;;;;;;13.17;8.23;;;3.70;99.90;;;;;;5053829;28;20190;-45
2021/12/27 02:10:38;;;;;;;12.60;8.37;;;3.70;99.90;;;;;;5054146;28;20263;-45
2021/12/27 02:13:04;;;;;;;13.43;8.73;;;3.70;99.90;;;;;;5053682;28;20225;-45
2021/12/27 02:15:30;;;;;;;13.37;8.83;;;3.70;99.90;;;;;;5054108;28;20210;-44
2021/12/27 02:17:56;;;;;;;14.77;9.07;;;3.70;99.90;;;;;;5053702;28;20172;-46
2021/12/27 02:20:24;;;;;;;13.93;9.40;;;3.60;99.90;;;;;;5053721;28;20177;-46
2021/12/27 02:22:53;;;;;;;12.87;8.90;;;3.60;99.90;;;;;;5053544;28;20211;-45
2021/12/27 02:25:19;;;;;;;14.00;8.97;;;3.60;99.90;;;;;;5053558;28;20180;-45
2021/12/27 02:27:45;;;;;;;13.83;9.33;;;3.60;99.90;;;;;;5054049;28;20242;-46
2021/12/27 02:30:14;;;;;;;13.27;9.27;;;3.60;99.90;;;;;;5052232;28;20540;-45
2021/12/27 02:32:51;;;;;;;12.27;8.93;;;3.70;99.90;;;;;;5053593;28;20243;-46
2021/12/27 02:35:20;;;;;;;15.87;8.73;;;3.70;99.90;;;;;;5053411;28;20682;-45
2021/12/27 02:37:46;;;;;;;15.17;8.97;;;3.70;99.90;;;;;;5053393;28;20175;-46
2021/12/27 02:40:14;;;;;;;14.10;8.47;;;3.60;99.90;;;;;;5052114;28;20270;-46
2021/12/27 02:42:54;;;;;;;12.87;8.97;;;3.70;99.90;;;;;;5053461;28;20208;-44
2021/12/27 02:45:20;;;;;;;10.80;7.47;;;3.70;99.90;;;;;;5053537;28;20187;-46
2021/12/27 02:47:46;;;;;;;12.57;8.87;;;3.60;99.90;;;;;;5053506;28;20184;-45
2021/12/27 02:50:11;;;;;;;13.70;8.87;;;3.60;99.90;;;;;;5053490;28;20234;-46
2021/12/27 02:52:37;;;;;;;14.60;9.07;;;3.70;99.90;;;;;;5053278;28;20211;-46
2021/12/27 02:55:03;;;;;;;15.23;9.83;;;3.70;99.90;;;;;;5052669;28;20207;-46
2021/12/27 02:57:29;;;;;;;15.07;9.17;;;3.70;99.90;;;;;;5053823;28;20202;-45
2021/12/27 02:59:57;;;;;;;16.07;8.90;;;3.70;99.90;;;;;;5053936;28;20620;-46
2021/12/27 03:02:23;;;;;;;14.30;8.97;;;3.70;99.90;;;;;;5053473;28;20199;-46
2021/12/27 03:04:48;;;;;;;14.77;9.13;;;3.70;99.90;;;;;;5053467;28;20262;-47
2021/12/27 03:07:14;;;;;;;12.77;9.03;;;3.80;99.90;;;;;;5053096;28;20223;-46
2021/12/27 03:09:39;;;;;;;14.57;9.20;;;3.70;99.90;;;;;;5053037;28;20194;-45
2021/12/27 03:12:10;;;;;;;13.10;8.93;;;3.80;99.90;;;;;;5053077;28;20207;-46
2021/12/27 03:14:35;;;;;;;13.73;9.07;;;3.80;99.90;;;;;;5052953;28;20195;-46
2021/12/27 03:17:02;;;;;;;14.90;9.33;;;3.80;99.90;;;;;;5053536;28;20176;-47
2021/12/27 03:19:28;;;;;;;14.63;9.20;;;3.90;99.90;;;;;;5052891;28;20204;-47
2021/12/27 03:21:53;;;;;;;13.00;8.73;;;3.80;99.90;;;;;;5053069;28;20244;-46
2021/12/27 03:24:19;;;;;;;16.23;9.90;;;3.90;99.90;;;;;;5052893;28;20191;-49
2021/12/27 03:26:44;;;;;;;12.80;8.57;;;3.90;99.90;;;;;;5053149;28;20181;-47
2021/12/27 03:29:10;;;;;;;15.63;9.67;;;3.90;99.90;;;;;;5052654;28;20210;-47
2021/12/27 03:31:37;;;;;;;13.40;8.77;;;3.90;99.90;;;;;;5052897;28;20192;-47
2021/12/27 03:34:04;;;;;;;10.60;7.37;;;3.90;99.90;;;;;;5052747;28;20188;-47
2021/12/27 03:36:36;;;;;;;14.73;9.07;;;3.90;99.90;;;;;;5052636;28;20294;-46
2021/12/27 03:39:04;;;;;;;13.03;8.27;;;3.90;99.90;;;;;;5052760;28;20232;-48
2021/12/27 03:41:30;;;;;;;11.63;8.20;;;3.90;99.90;;;;;;5052552;28;20645;-47
2021/12/27 03:43:55;;;;;;;12.03;7.87;;;3.90;99.90;;;;;;5052861;28;20184;-47
2021/12/27 03:46:21;;;;;;;10.90;7.47;;;4.00;99.90;;;;;;5052928;28;20185;-47
2021/12/27 03:48:47;;;;;;;12.07;8.37;;;4.00;99.90;;;;;;5052880;28;20184;-48
2021/12/27 03:51:12;;;;;;;11.93;7.70;;;3.90;99.90;;;;;;5052883;28;20207;-45
2021/12/27 03:53:38;;;;;;;13.27;8.63;;;3.90;99.90;;;;;;5052586;28;20287;-48
2021/12/27 03:56:04;;;;;;;13.70;7.90;;;3.90;99.90;;;;;;5052752;28;20203;-48
2021/12/27 03:58:34;;;;;;;14.27;8.73;;;4.00;99.90;;;;;;5052522;28;20181;-48
2021/12/27 04:01:13;;;;;;;16.53;9.40;;;4.00;99.90;;;;;;5052854;28;20222;-47
2021/12/27 04:03:39;;;;;;;14.37;8.40;;;4.00;99.90;;;;;;5052467;28;20698;-47
2021/12/27 04:06:04;;;;;;;16.43;8.23;;;4.00;99.90;;;;;;5053027;28;20181;-47
2021/12/27 04:08:30;;;;;;;19.10;9.67;;;4.00;99.90;;;;;;5055974;28;20647;-46
2021/12/27 04:10:56;;;;;;;16.47;9.70;;;4.00;99.90;;;;;;5055220;28;20187;-48
2021/12/27 04:13:22;;;;;;;13.50;9.03;;;4.00;99.90;;;;;;5056272;28;20215;-47
2021/12/27 04:15:49;;;;;;;15.10;9.03;;;4.00;99.90;;;;;;5056187;28;20204;-47
2021/12/27 04:18:15;;;;;;;14.97;8.93;;;4.00;99.90;;;;;;5056182;28;20525;-46
2021/12/27 04:20:41;;;;;;;14.00;9.67;;;4.00;99.90;;;;;;5055913;28;20184;-49
2021/12/27 04:23:07;;;;;;;16.80;9.97;;;4.00;99.90;;;;;;5056318;28;20280;-47
2021/12/27 04:25:32;;;;;;;15.50;8.93;;;4.00;99.90;;;;;;5055784;28;20547;-48
2021/12/27 04:27:58;;;;;;;17.23;9.63;;;4.00;99.90;;;;;;5055693;28;20192;-48
2021/12/27 04:30:24;;;;;;;13.70;8.67;;;4.00;99.90;;;;;;5055698;28;20183;-49
2021/12/27 04:32:50;;;;;;;14.93;9.20;;;4.00;99.90;;;;;;5055737;28;20242;-48
2021/12/27 04:35:18;;;;;;;12.83;8.60;;;4.00;99.90;;;;;;5055620;28;20211;-46
2021/12/27 04:37:44;;;;;;;12.97;8.43;;;4.00;99.90;;;;;;5055825;28;20191;-48
2021/12/27 04:40:12;;;;;;;14.80;9.53;;;4.00;99.90;;;;;;5056019;28;20571;-49
2021/12/27 04:42:40;;;;;;;15.57;9.33;;;4.00;99.90;;;;;;5054499;28;20208;-48
2021/12/27 04:45:07;;;;;;;16.00;9.10;;;4.00;99.90;;;;;;5055363;28;20173;-46
2021/12/27 04:47:32;;;;;;;16.07;9.77;;;4.00;99.90;;;;;;5055697;28;20184;-47
2021/12/27 04:49:58;;;;;;;15.77;8.87;;;4.00;99.90;;;;;;5055610;28;20180;-49
2021/12/27 04:52:23;;;;;;;14.20;8.70;;;4.00;99.90;;;;;;5055237;28;20687;-48
2021/12/27 04:54:49;;;;;;;15.47;8.93;;;4.00;99.90;;;;;;5055313;28;20672;-48
2021/12/27 04:57:16;;;;;;;12.13;8.40;;;4.00;99.90;;;;;;5055212;28;20196;-48
2021/12/27 04:59:41;;;;;;;12.20;8.07;;;4.00;99.90;;;;;;5055648;28;20176;-49
2021/12/27 05:02:07;;;;;;;16.37;9.37;;;4.00;99.90;;;;;;5055314;28;20556;-47
2021/12/27 05:04:33;;;;;;;14.93;8.83;;;4.10;99.90;;;;;;5055032;28;20188;-47
2021/12/27 05:06:59;;;;;;;14.10;9.03;;;4.00;99.90;;;;;;5055252;28;20287;-49
2021/12/27 05:09:24;;;;;;;15.30;9.13;;;4.00;99.90;;;;;;5054996;28;20176;-48
2021/12/27 05:11:50;;;;;;;16.63;9.30;;;4.10;99.90;;;;;;5055052;28;20694;-48
2021/12/27 05:14:16;;;;;;;16.67;9.40;;;4.10;99.90;;;;;;5055107;28;20254;-48
2021/12/27 05:16:41;;;;;;;15.27;9.67;;;4.00;99.90;;;;;;5054746;28;20188;-47
2021/12/27 05:19:07;;;;;;;15.00;9.60;;;4.10;99.90;;;;;;5054455;28;20179;-47
2021/12/27 05:21:32;;;;;;;14.13;8.93;;;4.10;99.90;;;;;;5054658;28;20168;-46
2021/12/27 05:23:58;;;;;;;12.63;8.17;;;4.00;99.90;;;;;;5055304;28;20176;-46
2021/12/27 05:26:23;;;;;;;16.13;9.23;;;4.00;99.90;;;;;;5054648;28;20180;-48
2021/12/27 05:28:49;;;;;;;14.97;9.20;;;4.10;99.90;;;;;;5054512;28;20701;-47
2021/12/27 05:31:15;;;;;;;18.93;9.50;;;4.10;99.90;;;;;;5054828;28;20540;-46
2021/12/27 05:33:40;;;;;;;13.07;7.63;;;4.10;99.90;;;;;;5054424;28;20204;-46
2021/12/27 05:36:06;;;;;;;14.97;9.27;;;4.20;99.90;;;;;;5054678;28;20211;-48
2021/12/27 05:38:32;;;;;;;13.63;8.50;;;4.10;99.90;;;;;;5054508;28;20172;-47
2021/12/27 05:40:58;;;;;;;11.20;6.90;;;4.10;99.90;;;;;;5054380;28;20172;-47
2021/12/27 05:43:24;;;;;;;16.43;8.73;;;4.20;99.90;;;;;;5054167;28;20219;-46
2021/12/27 05:45:50;;;;;;;16.43;9.43;;;4.20;99.90;;;;;;5054557;28;20206;-47
2021/12/27 05:48:16;;;;;;;15.30;9.13;;;4.20;99.90;;;;;;5054219;28;20184;-47
2021/12/27 05:50:42;;;;;;;16.17;9.57;;;4.20;99.90;;;;;;5053067;28;20201;-47
2021/12/27 05:53:08;;;;;;;16.73;9.97;;;4.20;99.90;;;;;;5054390;28;20202;-47
2021/12/27 05:55:34;;;;;;;15.50;8.83;;;4.20;99.90;;;;;;5053984;28;20207;-46
2021/12/27 05:58:00;;;;;;;15.97;9.87;;;4.20;99.90;;;;;;5053116;28;20192;-47
2021/12/27 06:00:26;;;;;;;15.50;9.03;;;4.20;99.90;;;;;;5054355;28;20552;-46
2021/12/27 06:02:54;;;;;;;18.47;9.77;;;4.20;99.90;;;;;;5054490;28;20274;-46
2021/12/27 06:05:21;;;;;;;14.97;8.77;;;4.20;99.90;;;;;;5052720;28;20211;-46
2021/12/27 06:07:47;;;;;;;15.53;8.47;;;4.20;99.90;;;;;;5053866;28;20176;-48
2021/12/27 06:10:12;;;;;;;17.43;9.63;;;4.20;99.90;;;;;;5053821;28;20211;-46
2021/12/27 06:12:38;;;;;;;18.17;9.63;;;4.20;99.90;;;;;;5053753;28;20253;-46
2021/12/27 06:15:04;;;;;;;17.60;9.03;;;4.20;99.90;;;;;;5053953;28;20262;-48
2021/12/27 06:17:31;;;;;;;17.73;9.97;;;4.20;99.90;;;;;;5054530;28;20184;-47
2021/12/27 06:19:58;;;;;;;17.37;9.40;;;4.30;99.90;;;;;;5053965;28;20184;-48
2021/12/27 06:22:25;;;;;;;18.13;9.90;;;4.30;99.90;;;;;;5053601;28;20215;-46
2021/12/27 06:24:50;;;;;;;16.07;9.37;;;4.30;99.90;;;;;;5053936;28;20180;-48
2021/12/27 06:27:16;;;;;;;26.73;9.13;;;4.30;99.90;;;;;;5053397;28;20521;-48
2021/12/27 06:29:41;;;;;;;16.40;8.80;;;4.30;99.90;;;;;;5052755;28;20199;-48
2021/12/27 06:32:13;;;;;;;17.80;9.30;;;4.30;99.90;;;;;;5053376;28;20215;-47
2021/12/27 06:34:42;;;;;;;16.30;8.50;;;4.30;99.90;;;;;;5053814;28;20165;-48
2021/12/27 06:37:07;;;;;;;16.77;9.07;;;4.30;99.90;;;;;;5053535;28;20180;-46
2021/12/27 06:39:33;;;;;;;24.13;9.17;;;4.30;99.90;;;;;;5053378;28;20199;-48
2021/12/27 06:41:59;;;;;;;13.53;8.47;;;4.30;99.90;;;;;;5053518;28;20661;-48
2021/12/27 06:44:24;;;;;;;15.13;8.93;;;4.30;99.90;;;;;;5053766;28;20176;-46
2021/12/27 06:46:52;;;;;;;15.87;9.23;;;4.30;99.90;;;;;;5052275;28;20188;-47
2021/12/27 06:49:18;;;;;;;14.03;8.57;;;4.30;99.90;;;;;;5053406;28;20191;-47
2021/12/27 06:51:43;;;;;;;14.60;8.97;;;4.30;99.90;;;;;;5053169;28;20560;-47
2021/12/27 06:54:09;;;;;;;15.00;9.43;;;4.30;99.90;;;;;;5053566;28;20242;-47
2021/12/27 06:56:35;;;;;;;16.60;8.07;;;4.30;99.90;;;;;;5053564;28;20210;-48
2021/12/27 06:59:02;;;;;;;13.13;7.40;;;4.30;99.90;;;;;;5053220;28;20180;-47
2021/12/27 07:01:28;;;;;;;12.80;8.33;;;4.30;99.90;;;;;;5053029;28;20179;-48
2021/12/27 07:03:54;;;;;;;16.03;9.20;;;4.30;99.90;;;;;;5052938;28;20173;-47
2021/12/27 07:06:19;;;;;;;16.30;9.50;;;4.30;99.90;;;;;;5053061;28;20176;-47
2021/12/27 07:08:47;;;;;;;19.40;8.93;;;4.30;99.90;;;;;;5053066;28;20191;-48
2021/12/27 07:11:13;;;;;;;17.03;10.43;;;4.30;99.90;;;;;;5053295;28;20310;-47
2021/12/27 07:13:38;;;;;;;16.07;9.13;;;4.30;99.90;;;;;;5053300;28;20663;-47
2021/12/27 07:16:05;;;;;;;14.43;9.23;;;4.30;99.90;;;;;;5053294;28;20294;-48
2021/12/27 07:18:31;;;;;;;17.40;8.60;;;4.30;99.90;;;;;;5053338;28;20180;-48
2021/12/27 07:20:57;;;;;;;14.87;8.67;;;4.30;99.90;;;;;;5053645;28;20636;-48
2021/12/27 07:23:22;;;;;;;16.27;8.73;;;4.30;99.90;;;;;;5053625;28;20244;-50
2021/12/27 07:25:48;;;;;;;16.63;9.60;;;4.30;99.90;;;;;;5053549;28;20184;-47
2021/12/27 07:28:14;;;;;;;14.50;8.83;;;4.20;99.90;;;;;;5053581;28;20283;-46
2021/12/27 07:30:40;;;;;;;14.00;8.17;;;4.20;99.90;;;;;;5053967;28;20529;-47
2021/12/27 07:33:05;;;;;;;15.53;9.30;;;4.20;99.90;;;;;;5053857;28;20672;-46
2021/12/27 07:35:31;;;;;;;18.33;8.43;;;4.20;99.90;;;;;;5052253;28;20211;-48
2021/12/27 07:37:56;;;;;;;16.37;8.37;;;4.10;99.90;;;;;;5053487;28;20168;-46
2021/12/27 07:40:22;;;;;;;14.13;8.20;;;4.10;99.90;;;;;;5054056;28;20625;-46
2021/12/27 07:42:47;;;;;;;12.37;8.40;;;4.10;99.90;;;;;;5057839;28;20200;-47
2021/12/27 07:45:13;;;;;;;14.07;8.50;;;4.10;99.90;;;;;;5057687;28;20660;-46
2021/12/27 07:47:39;;;;;;;12.27;7.50;;;4.00;99.90;;;;;;5057463;28;20188;-47
2021/12/27 07:50:06;;;;;;;12.87;8.17;;;4.00;99.90;;;;;;5057398;28;20226;-48
2021/12/27 07:52:32;;;;;;;14.77;7.87;;;4.00;99.90;;;;;;5057421;28;20211;-46
2021/12/27 07:54:58;;;;;;;11.07;7.50;;;4.00;99.90;;;;;;5055788;28;20207;-47
2021/12/27 07:57:23;;;;;;;12.73;8.33;;;4.00;99.90;;;;;;5057292;28;20187;-47
2021/12/27 08:00:36;;;;;;;13.27;7.50;;;4.00;99.90;;;;;;5057531;28;20623;-47
2021/12/27 08:03:02;;;;;;;12.13;6.77;;;4.10;99.90;;;;;;5057416;28;20204;-47
2021/12/27 08:05:28;;;;;;;11.40;6.97;;;4.10;99.90;;;;;;5056897;28;20174;-47
2021/12/27 08:07:53;;;;;;;10.10;6.97;;;4.10;99.90;;;;;;5057250;28;20191;-47
2021/12/27 08:10:19;;;;;;;10.13;6.97;;;4.20;99.90;;;;;;5057241;28;20253;-46
2021/12/27 08:12:45;;;;;;;8.90;5.50;;;4.20;99.90;;;;;;5056044;28;20211;-47
2021/12/27 08:15:11;;;;;;;10.23;6.20;;;4.30;99.90;;;;;;5057212;28;20294;-46
2021/12/27 08:17:38;;;;;;;12.63;7.27;;;4.30;99.90;;;;;;5057143;28;20169;-47
2021/12/27 08:20:05;;;;;;;11.60;7.17;;;4.40;99.90;;;;;;5056906;28;20168;-47
2021/12/27 08:22:31;;;;;;;11.70;6.27;;;4.40;99.90;;;;;;5056597;28;20234;-48
2021/12/27 08:24:57;;;;;;;13.87;8.23;;;4.40;99.90;;;;;;5056740;28;20184;-47
2021/12/27 08:27:24;;;;;;;13.67;7.63;;;4.50;99.90;;;;;;5056365;28;20176;-47
2021/12/27 08:29:50;;;;;;;11.30;7.70;;;4.50;99.90;;;;;;5056604;28;20238;-48
2021/12/27 08:32:18;;;;;;;11.57;7.47;;;4.50;99.90;;;;;;5056254;28;20196;-48
2021/12/27 08:34:44;;;;;;;11.97;7.73;;;4.50;99.90;;;;;;5056887;28;20234;-46
2021/12/27 08:37:10;;;;;;;13.27;8.70;;;4.60;99.90;;;;;;5056217;28;20610;-48
2021/12/27 08:39:38;;;;;;;13.73;7.17;;;4.60;99.90;;;;;;5054602;28;20530;-47
2021/12/27 08:42:08;;;;;;;13.10;7.07;;;4.60;99.90;;;;;;5056350;28;20620;-47
2021/12/27 08:44:35;;;;;;;9.63;6.77;;;4.60;99.90;;;;;;5056036;28;20517;-47
2021/12/27 08:47:01;;;;;;;7.90;4.80;;;4.70;99.90;;;;;;5054464;28;20172;-49
2021/12/27 08:49:27;;;;;;;9.03;6.43;;;4.70;99.90;;;;;;5056023;28;20232;-48
2021/12/27 08:51:53;;;;;;;10.03;6.00;;;4.70;99.90;;;;;;5055912;28;20207;-46
2021/12/27 08:54:18;;;;;;;9.33;5.63;;;4.70;99.90;;;;;;5055059;28;20172;-47
2021/12/27 08:56:44;;;;;;;8.47;5.63;;;4.80;99.90;;;;;;5055595;28;20791;-48
2021/12/27 08:59:10;;;;;;;9.50;5.87;;;4.90;99.90;;;;;;5055418;28;20515;-47
2021/12/27 09:01:36;;;;;;;8.53;6.23;;;4.90;99.90;;;;;;5055800;28;20173;-48
2021/12/27 09:04:45;;;;;;;11.80;6.53;;;5.00;99.90;;;;;;5055931;28;20349;-48
2021/12/27 09:07:12;;;;;;;9.13;6.07;;;5.00;99.90;;;;;;5056021;28;20161;-47
2021/12/27 09:09:39;;;;;;;12.03;7.13;;;5.00;99.90;;;;;;5054200;28;20176;-49
2021/12/27 09:12:06;;;;;;;8.90;5.70;;;5.10;99.90;;;;;;5055403;28;20200;-48
2021/12/27 09:14:32;;;;;;;11.53;6.67;;;5.10;99.90;;;;;;5054940;28;20648;-48
2021/12/27 09:16:57;;;;;;;10.30;6.00;;;5.20;99.90;;;;;;5055179;28;20169;-48
2021/12/27 09:19:23;;;;;;;9.53;6.00;;;5.20;99.90;;;;;;5055155;28;20176;-48
2021/12/27 09:21:49;;;;;;;11.70;6.63;;;5.20;99.90;;;;;;5055298;28;20287;-48
2021/12/27 09:24:15;;;;;;;10.23;5.70;;;5.30;99.90;;;;;;5055024;28;20255;-48
2021/12/27 09:26:40;;;;;;;9.07;5.73;;;5.30;99.90;;;;;;5054406;28;20189;-47
2021/12/27 09:29:07;;;;;;;10.50;6.13;;;5.40;99.90;;;;;;5054675;28;20207;-49
2021/12/27 09:31:34;;;;;;;8.87;5.90;;;5.50;99.90;;;;;;5054910;28;20260;-47
2021/12/27 09:34:00;;;;;;;6.77;5.10;;;5.50;99.90;;;;;;5054851;28;20172;-49
2021/12/27 09:36:25;;;;;;;9.17;5.50;;;5.60;99.90;;;;;;5054656;28;20223;-48
2021/12/27 09:38:51;;;;;;;11.10;6.43;;;5.60;99.90;;;;;;5055507;28;20168;-45
2021/12/27 09:41:19;;;;;;;6.47;3.00;;;5.60;99.90;;;;;;5054759;28;20192;-45
2021/12/27 09:43:45;;;;;;;10.37;6.00;;;5.60;99.90;;;;;;5054838;28;20173;-48
2021/12/27 09:46:11;;;;;;;9.33;4.23;;;5.70;99.90;;;;;;5055167;28;20526;-47
2021/12/27 09:48:37;;;;;;;12.83;6.30;;;5.70;99.90;;;;;;5055248;28;20242;-48
2021/12/27 09:51:04;;;;;;;9.80;6.07;;;5.70;99.90;;;;;;5053430;28;20206;-46
2021/12/27 09:53:29;;;;;;;10.47;6.00;;;5.70;99.90;;;;;;5054814;28;20215;-48
2021/12/27 09:55:55;;;;;;;10.77;6.17;;;5.80;99.90;;;;;;5054729;28;20204;-46
2021/12/27 09:58:21;;;;;;;11.43;6.33;;;5.80;99.90;;;;;;5054815;28;20156;-46
2021/12/27 10:00:46;;;;;;;7.93;5.30;;;5.80;99.90;;;;;;5055552;28;20203;-47
2021/12/27 10:03:12;;;;;;;8.13;6.00;;;5.80;99.90;;;;;;5054196;28;20196;-47
2021/12/27 10:05:38;;;;;;;8.60;5.90;;;5.80;99.90;;;;;;5052375;28;20672;-47
2021/12/27 10:08:05;;;;;;;9.73;6.27;;;5.90;99.90;;;;;;5054751;28;20188;-47
2021/12/27 10:10:35;;;;;;;9.77;6.00;;;5.90;99.90;;;;;;5053908;28;20176;-46
2021/12/27 10:13:08;;;;;;;7.77;5.80;;;5.90;99.90;;;;;;5054684;28;20189;-46
2021/12/27 10:15:38;;;;;;;9.23;5.53;;;6.00;99.90;;;;;;5055307;28;20192;-46
2021/12/27 10:18:17;;;;;;;8.90;5.93;;;6.00;99.90;;;;;;5055912;28;20274;-47
2021/12/27 10:20:44;;;;;;;9.17;5.70;;;6.10;99.90;;;;;;5054348;28;20259;-47
2021/12/27 10:23:12;;;;;;;7.83;4.90;;;6.10;99.90;;;;;;5055899;28;20671;-48
2021/12/27 10:25:38;;;;;;;11.83;6.00;;;6.20;99.90;;;;;;5054369;28;20231;-46
2021/12/27 10:28:05;;;;;;;9.87;6.10;;;6.20;99.90;;;;;;5055322;28;20199;-47
2021/12/27 10:30:34;;;;;;;9.47;5.77;;;6.30;99.90;;;;;;5055580;28;20172;-48
2021/12/27 10:33:08;;;;;;;8.60;4.77;;;6.40;99.90;;;;;;5055487;28;20682;-48
2021/12/27 10:35:40;;;;;;;8.50;5.73;;;6.40;99.90;;;;;;5053795;28;20744;-48
2021/12/27 10:38:22;;;;;;;8.67;5.87;;;6.50;99.90;;;;;;5053571;28;20253;-47
2021/12/27 10:40:56;;;;;;;9.10;5.67;;;6.50;99.90;;;;;;5055004;28;20230;-48
2021/12/27 10:43:43;;;;;;;8.03;5.20;;;6.50;99.90;;;;;;5053408;28;20183;-47
2021/12/27 10:46:15;;;;;;;7.50;5.57;;;6.60;99.90;;;;;;5054634;28;20216;-47
2021/12/27 10:48:57;;;;;;;9.83;6.77;;;6.50;99.90;;;;;;5054554;28;20608;-47
2021/12/27 10:51:24;;;;;;;22.53;11.27;;;6.60;99.90;;;;;;5052983;28;20174;-46
2021/12/27 10:53:55;;;;;;;14.20;8.17;;;6.60;99.90;;;;;;5054541;28;20165;-48
2021/12/27 10:56:23;;;;;;;9.30;6.40;;;6.60;99.90;;;;;;5054431;28;20546;-48
2021/12/27 10:59:00;;;;;;;8.87;6.00;;;6.70;99.90;;;;;;5054129;28;20179;-48
2021/12/27 11:01:28;;;;;;;7.57;5.40;;;6.70;99.90;;;;;;5053905;28;20613;-48
2021/12/27 11:04:01;;;;;;;12.50;6.33;;;6.80;99.90;;;;;;5053606;28;20175;-48
2021/12/27 11:06:29;;;;;;;10.13;5.03;;;6.80;99.90;;;;;;5054027;28;20634;-48
2021/12/27 11:08:57;;;;;;;8.80;5.70;;;6.80;99.90;;;;;;5053522;28;20241;-48
2021/12/27 11:11:25;;;;;;;9.27;5.77;;;6.90;99.90;;;;;;5053683;28;20191;-48
2021/12/27 11:13:54;;;;;;;9.93;5.70;;;6.90;99.90;;;;;;5053310;28;20268;-47
2021/12/27 11:16:20;;;;;;;10.30;6.27;;;6.90;99.90;;;;;;5055280;28;20230;-48
2021/12/27 11:18:46;;;;;;;8.83;5.20;;;7.00;99.90;;;;;;5057233;28;20654;-49
2021/12/27 11:21:15;;;;;;;8.53;6.10;;;7.00;99.90;;;;;;5057259;28;20172;-47
2021/12/27 11:23:42;;;;;;;12.47;5.70;;;7.00;99.90;;;;;;5056043;28;20654;-46
2021/12/27 11:26:12;;;;;;;11.53;6.27;;;7.00;99.90;;;;;;5057174;28;20184;-47
2021/12/27 11:28:40;;;;;;;11.33;6.20;;;7.00;99.90;;;;;;5056850;28;20282;-49
2021/12/27 11:31:25;;;;;;;11.60;6.17;;;7.10;99.90;;;;;;5057574;28;20260;-47
2021/12/27 11:33:53;;;;;;;11.40;6.03;;;7.10;99.90;;;;;;5055651;28;20215;-47
2021/12/27 11:36:20;;;;;;;4.90;3.40;;;7.10;99.90;;;;;;5056786;28;20201;-48
2021/12/27 11:38:47;;;;;;;8.30;6.10;;;7.20;99.90;;;;;;5057036;28;20532;-49
2021/12/27 11:41:33;;;;;;;6.87;4.70;;;7.10;99.90;;;;;;5057670;28;20645;-48
2021/12/27 11:44:08;;;;;;;14.33;6.40;;;7.20;99.90;;;;;;5057213;28;20169;-47
2021/12/27 11:46:49;;;;;;;9.63;6.27;;;7.20;99.90;;;;;;5056730;28;20175;-48
2021/12/27 11:49:16;;;;;;;9.83;6.10;;;7.20;99.90;;;;;;5056728;28;20208;-48
2021/12/27 11:51:43;;;;;;;9.60;6.07;;;7.20;99.90;;;;;;5055270;28;20289;-48
2021/12/27 11:54:30;;;;;;;11.50;6.03;;;7.30;99.90;;;;;;5056799;28;20646;-49
2021/12/27 11:56:57;;;;;;;9.10;6.07;;;7.40;99.90;;;;;;5056563;28;20288;-49
2021/12/27 11:59:27;;;;;;;10.07;6.30;;;7.40;99.90;;;;;;5056412;28;20175;-48
2021/12/27 12:01:54;;;;;;;8.27;5.97;;;7.40;99.90;;;;;;5056503;28;20195;-47
2021/12/27 12:04:38;;;;;;;10.73;6.13;;;7.50;99.90;;;;;;5056351;28;20181;-48
2021/12/27 12:07:05;;;;;;;9.07;6.17;;;7.50;99.90;;;;;;5056598;28;20170;-48
2021/12/27 12:09:31;;;;;;;8.90;5.87;;;7.60;99.90;;;;;;5056312;28;20210;-47
2021/12/27 12:12:04;;;;;;;8.80;6.03;;;7.60;99.90;;;;;;5056759;28;20205;-46
2021/12/27 12:14:36;;;;;;;6.60;5.07;;;7.70;99.90;;;;;;5056752;28;20168;-48
2021/12/27 12:17:13;;;;;;;6.90;5.60;;;7.70;99.90;;;;;;5056154;28;20191;-48
2021/12/27 12:19:39;;;;;;;6.63;4.87;;;7.70;99.90;;;;;;5056308;28;20191;-46
2021/12/27 12:22:05;;;;;;;7.33;5.27;;;7.80;99.90;;;;;;5056024;28;20203;-47
2021/12/27 12:24:31;;;;;;;7.33;5.63;;;7.80;99.90;;;;;;5054822;28;20179;-48
2021/12/27 12:26:58;;;;;;;7.07;4.90;;;7.80;99.90;;;;;;5054001;28;20182;-47
2021/12/27 12:29:26;;;;;;;8.60;5.13;;;7.90;99.90;;;;;;5055603;28;20195;-47
2021/12/27 12:31:57;;;;;;;8.23;5.40;;;7.90;99.90;;;;;;5056041;28;20210;-46
2021/12/27 12:34:23;;;;;;;9.03;4.90;;;7.90;99.90;;;;;;5056043;28;20264;-48
2021/12/27 12:36:59;;;;;;;13.63;7.87;;;7.90;99.90;;;;;;5056106;28;20206;-46
2021/12/27 12:39:38;;;;;;;14.13;8.57;;;7.90;99.90;;;;;;5056202;28;20522;-47
2021/12/27 12:42:06;;;;;;;11.80;7.73;;;8.00;99.90;;;;;;5055936;28;20199;-48
2021/12/27 12:44:32;;;;;;;8.83;6.30;;;8.00;99.90;;;;;;5055762;28;20175;-47
2021/12/27 12:47:01;;;;;;;8.57;6.00;;;8.00;99.90;;;;;;5056065;28;20632;-47
2021/12/27 12:49:29;;;;;;;9.93;5.90;;;8.10;99.90;;;;;;5055962;28;20207;-48
2021/12/27 12:51:59;;;;;;;7.00;5.23;;;8.10;99.90;;;;;;5055832;28;20188;-48